Time;durP1;ratioP1;P1;durP2;ratioP2;P2;SDS_P1;SDS_P2;PMS_P1;PMS_P2;Temp;Humidity;BMP_temperature;BMP_pressure;BME280_temperature;BME280_humidity;BME280_pressure;Samples;Min_cycle;Max_cycle;Signal;HPM_P1;HPM_P2
2021/01/30 00:00:54;;;;;;;16.23;4.15;;;9.60;99.90;;;;;;4959223;28;20689;-90
2021/01/30 00:03:20;;;;;;;19.13;3.53;;;9.60;99.90;;;;;;4975500;28;20281;-91
2021/01/30 00:05:46;;;;;;;24.80;3.88;;;9.50;99.90;;;;;;4976311;28;20642;-90
2021/01/30 00:08:14;;;;;;;22.73;4.05;;;9.50;99.90;;;;;;4975747;28;20170;-91
2021/01/30 00:10:40;;;;;;;20.25;3.10;;;9.50;99.90;;;;;;4976133;28;20188;-90
2021/01/30 00:13:07;;;;;;;26.05;5.00;;;9.40;99.90;;;;;;4975841;28;20206;-90
2021/01/30 00:15:33;;;;;;;26.70;3.63;;;9.50;99.90;;;;;;4975831;28;20178;-91
2021/01/30 00:17:59;;;;;;;25.55;5.00;;;9.50;99.90;;;;;;4975434;28;20225;-88
2021/01/30 00:20:29;;;;;;;30.70;3.85;;;9.60;99.90;;;;;;4974376;28;20218;-89
2021/01/30 00:22:58;;;;;;;19.00;3.63;;;9.50;99.90;;;;;;4975882;28;20186;-90
2021/01/30 00:25:30;;;;;;;24.23;4.10;;;9.60;99.90;;;;;;4980731;28;20180;-89
2021/01/30 00:27:57;;;;;;;24.70;4.05;;;9.50;99.90;;;;;;4996300;28;20157;-90
2021/01/30 00:30:26;;;;;;;23.02;4.18;;;9.60;99.90;;;;;;4997780;28;20197;-91
2021/01/30 00:32:52;;;;;;;24.02;4.20;;;9.60;99.90;;;;;;4989451;28;20218;-90
2021/01/30 00:35:20;;;;;;;20.60;3.75;;;9.70;99.90;;;;;;4975686;28;20174;-89
2021/01/30 00:37:45;;;;;;;23.75;3.35;;;9.70;99.90;;;;;;4975694;28;20167;-90
2021/01/30 00:40:11;;;;;;;19.17;3.58;;;9.80;99.90;;;;;;4974444;28;20177;-89
2021/01/30 00:42:37;;;;;;;27.30;4.65;;;9.80;99.90;;;;;;4959205;28;20186;-90
2021/01/30 00:45:07;;;;;;;26.08;4.03;;;9.90;99.90;;;;;;4980124;28;20186;-90
2021/01/30 00:47:35;;;;;;;29.85;4.45;;;10.00;99.90;;;;;;5000215;28;20245;-90
2021/01/30 00:50:00;;;;;;;22.25;3.67;;;10.00;99.90;;;;;;4987807;28;20190;-89
2021/01/30 00:52:26;;;;;;;39.33;5.00;;;10.10;99.90;;;;;;4977868;28;20221;-89
2021/01/30 00:54:52;;;;;;;31.45;5.32;;;10.10;99.90;;;;;;4978484;28;20260;-90
2021/01/30 00:57:19;;;;;;;27.50;4.88;;;10.20;99.90;;;;;;4978808;28;20170;-90
2021/01/30 00:59:45;;;;;;;32.70;4.95;;;10.10;99.90;;;;;;4961809;28;20178;-89
2021/01/30 01:02:15;;;;;;;35.85;4.90;;;10.10;99.90;;;;;;4977788;28;20261;-90
2021/01/30 01:04:44;;;;;;;38.08;5.82;;;10.20;99.90;;;;;;4977723;28;20181;-90
2021/01/30 01:07:13;;;;;;;23.27;4.40;;;10.20;99.90;;;;;;4977974;28;20174;-91
2021/01/30 01:09:39;;;;;;;28.13;4.38;;;10.10;99.90;;;;;;4977833;28;20174;-90
2021/01/30 01:12:05;;;;;;;28.90;5.55;;;10.10;99.90;;;;;;4961561;28;20209;-90
2021/01/30 01:14:31;;;;;;;29.38;4.80;;;10.20;99.90;;;;;;4977692;28;20651;-90
2021/01/30 01:16:57;;;;;;;34.00;5.35;;;10.20;99.90;;;;;;4961723;28;20178;-90
2021/01/30 01:19:26;;;;;;;38.92;5.38;;;10.20;99.90;;;;;;4977907;28;20206;-90
2021/01/30 01:21:52;;;;;;;30.83;4.95;;;10.10;99.90;;;;;;4977340;28;20182;-90
2021/01/30 01:24:19;;;;;;;24.90;4.93;;;10.20;99.90;;;;;;4977121;28;20186;-90
2021/01/30 01:26:46;;;;;;;38.72;4.85;;;10.20;99.90;;;;;;4977635;28;20170;-90
2021/01/30 01:29:17;;;;;;;32.13;5.25;;;10.10;99.90;;;;;;4977443;28;20174;-90
2021/01/30 01:31:47;;;;;;;32.33;4.68;;;10.10;99.90;;;;;;4977637;28;20663;-89
2021/01/30 01:34:13;;;;;;;28.17;5.68;;;10.10;99.90;;;;;;4977443;28;20181;-90
2021/01/30 01:36:39;;;;;;;29.88;5.00;;;10.10;99.90;;;;;;4978308;28;20170;-89
2021/01/30 01:39:05;;;;;;;45.22;5.82;;;10.10;99.90;;;;;;4960957;28;20687;-89
2021/01/30 01:41:30;;;;;;;31.52;6.00;;;10.10;99.90;;;;;;4964594;28;20214;-90
2021/01/30 01:43:59;;;;;;;35.17;5.97;;;10.20;99.90;;;;;;4958799;28;20189;-90
2021/01/30 01:46:44;;;;;;;29.13;4.93;;;10.20;99.90;;;;;;4957842;28;20287;-89
2021/01/30 01:49:20;;;;;;;36.85;5.22;;;10.20;99.90;;;;;;4957940;29;20503;-90
2021/01/30 01:52:02;;;;;;;33.08;5.38;;;10.10;99.90;;;;;;4965328;28;20216;-90
2021/01/30 01:54:29;;;;;;;35.22;5.18;;;10.10;99.90;;;;;;4977223;28;20273;-89
2021/01/30 01:57:05;;;;;;;39.10;5.53;;;10.00;99.90;;;;;;4976807;28;20182;-89
2021/01/30 01:59:31;;;;;;;29.60;5.10;;;10.10;99.90;;;;;;4978010;28;20252;-90
2021/01/30 02:01:57;;;;;;;29.95;5.15;;;10.10;99.90;;;;;;4976498;28;20201;-89
2021/01/30 02:04:24;;;;;;;37.13;5.60;;;10.00;99.90;;;;;;4976760;28;20185;-89
2021/01/30 02:06:52;;;;;;;26.05;5.55;;;10.10;99.90;;;;;;4976788;28;20193;-90
2021/01/30 02:09:24;;;;;;;35.35;5.78;;;10.10;99.90;;;;;;4976767;28;20619;-90
2021/01/30 02:12:10;;;;;;;26.17;4.55;;;10.00;99.90;;;;;;4960147;28;20261;-90
2021/01/30 02:14:40;;;;;;;27.65;5.57;;;10.00;99.90;;;;;;4957637;29;20174;-89
2021/01/30 02:17:33;;;;;;;39.65;5.22;;;10.10;99.90;;;;;;4958634;28;20167;-90
2021/01/30 02:20:37;;;;;;;39.40;6.32;;;10.10;99.90;;;;;;4958552;28;20175;-90
2021/01/30 02:23:29;;;;;;;30.92;5.28;;;10.10;99.90;;;;;;4956966;28;20222;-89
2021/01/30 02:26:26;;;;;;;27.75;5.03;;;9.90;99.90;;;;;;4957297;29;20178;-90
2021/01/30 02:29:10;;;;;;;35.38;7.22;;;10.00;99.90;;;;;;4958694;29;20173;-90
2021/01/30 02:32:07;;;;;;;43.50;5.55;;;10.10;99.90;;;;;;4977232;28;20321;-90
2021/01/30 02:34:41;;;;;;;31.00;5.47;;;10.10;99.90;;;;;;4978557;28;20170;-90
2021/01/30 02:37:24;;;;;;;25.00;6.13;;;10.10;99.90;;;;;;4978531;28;20177;-89
2021/01/30 02:40:20;;;;;;;32.97;4.85;;;10.10;99.90;;;;;;4977829;28;20213;-90
2021/01/30 02:42:55;;;;;;;40.63;5.45;;;10.10;99.90;;;;;;4973249;28;20193;-88
2021/01/30 02:45:25;;;;;;;41.60;4.82;;;10.10;99.90;;;;;;4963308;28;20182;-90
2021/01/30 02:48:05;;;;;;;28.40;5.07;;;10.20;99.90;;;;;;4966291;28;20171;-90
2021/01/30 02:50:39;;;;;;;32.85;4.88;;;10.20;99.90;;;;;;4976367;28;20206;-89
2021/01/30 02:53:06;;;;;;;30.05;4.95;;;10.30;99.90;;;;;;4979191;28;20233;-90
2021/01/30 02:55:34;;;;;;;32.17;5.32;;;10.30;99.90;;;;;;4997623;28;20182;-90
2021/01/30 02:58:01;;;;;;;31.42;4.90;;;10.30;99.90;;;;;;4997597;28;20175;-90
2021/01/30 03:00:26;;;;;;;31.58;4.63;;;10.40;99.90;;;;;;4992204;28;20178;-90
2021/01/30 03:02:53;;;;;;;38.78;6.13;;;10.40;99.90;;;;;;4960782;28;20229;-89
2021/01/30 03:05:20;;;;;;;34.17;5.18;;;10.50;99.90;;;;;;4976626;28;20273;-90
2021/01/30 03:08:25;;;;;;;32.13;4.95;;;10.60;99.90;;;;;;4975426;28;20526;-89
2021/01/30 03:11:06;;;;;;;39.13;5.10;;;10.60;99.90;;;;;;4977785;28;20575;-90
2021/01/30 03:13:54;;;;;;;32.10;5.93;;;10.60;99.90;;;;;;4997670;28;20240;-90
2021/01/30 03:16:23;;;;;;;35.63;6.13;;;10.60;99.90;;;;;;4996781;28;20264;-90
2021/01/30 03:19:05;;;;;;;30.88;5.00;;;10.60;99.90;;;;;;4977386;28;20182;-89
2021/01/30 03:21:32;;;;;;;39.25;5.55;;;10.70;99.90;;;;;;4975452;28;20180;-90
2021/01/30 03:24:01;;;;;;;28.73;5.10;;;10.70;99.90;;;;;;4975282;28;20190;-90
2021/01/30 03:26:28;;;;;;;30.42;5.07;;;10.80;99.90;;;;;;4974819;28;20189;-89
2021/01/30 03:28:55;;;;;;;30.40;4.53;;;10.80;99.90;;;;;;4975456;28;20169;-90
2021/01/30 03:31:21;;;;;;;20.33;4.43;;;10.90;99.90;;;;;;4975399;28;20201;-89
2021/01/30 03:33:47;;;;;;;23.73;4.43;;;10.90;99.90;;;;;;4975488;28;20185;-89
2021/01/30 03:36:13;;;;;;;28.42;4.47;;;11.00;99.90;;;;;;4959200;28;20178;-89
2021/01/30 03:38:38;;;;;;;26.15;4.47;;;11.00;99.90;;;;;;4959419;28;20237;-90
2021/01/30 03:41:05;;;;;;;24.10;4.75;;;11.10;99.90;;;;;;4974886;28;20594;-90
2021/01/30 03:43:34;;;;;;;31.35;4.82;;;11.10;99.90;;;;;;4975095;28;20185;-89
2021/01/30 03:46:03;;;;;;;36.15;5.05;;;11.10;99.90;;;;;;4975067;28;20205;-90
2021/01/30 03:48:28;;;;;;;24.90;4.05;;;11.20;99.90;;;;;;4975178;28;20766;-90
2021/01/30 03:50:54;;;;;;;24.63;4.85;;;11.10;99.90;;;;;;4955745;28;20211;-89
2021/01/30 03:53:22;;;;;;;24.98;4.65;;;11.10;99.90;;;;;;4956567;28;20222;-89
2021/01/30 03:55:48;;;;;;;21.33;4.93;;;11.10;99.90;;;;;;4971533;28;20184;-90
2021/01/30 03:58:13;;;;;;;21.20;5.07;;;11.00;99.90;;;;;;4974767;28;20170;-89
2021/01/30 04:00:39;;;;;;;19.42;4.15;;;11.00;99.90;;;;;;4974810;28;20204;-90
2021/01/30 04:03:07;;;;;;;29.95;5.05;;;11.10;99.90;;;;;;4974786;28;20189;-90
2021/01/30 04:05:36;;;;;;;24.58;4.85;;;11.00;99.90;;;;;;4958565;28;20178;-90
2021/01/30 04:08:02;;;;;;;12.45;5.60;;;10.50;99.90;;;;;;4975021;28;20162;-90
2021/01/30 04:10:36;;;;;;;10.73;6.90;;;9.70;99.90;;;;;;4965245;28;20193;-90
2021/01/30 04:13:08;;;;;;;8.32;6.13;;;9.00;99.90;;;;;;4942666;29;20213;-89
2021/01/30 04:15:41;;;;;;;11.25;6.60;;;8.50;99.90;;;;;;4957178;29;20185;-90
2021/01/30 04:18:14;;;;;;;8.13;7.07;;;8.10;99.90;;;;;;4956807;28;20194;-88
2021/01/30 04:20:40;;;;;;;8.43;7.57;;;8.00;99.90;;;;;;4974215;28;20182;-89
2021/01/30 04:23:10;;;;;;;7.87;7.17;;;7.90;99.90;;;;;;4980318;28;20217;-88
2021/01/30 04:25:38;;;;;;;6.83;6.17;;;7.70;99.90;;;;;;4978952;28;20177;-89
2021/01/30 04:28:04;;;;;;;6.37;5.77;;;7.50;99.90;;;;;;4963038;28;20177;-89
2021/01/30 04:30:31;;;;;;;6.77;6.07;;;7.40;99.90;;;;;;4978764;28;20169;-89
2021/01/30 04:32:58;;;;;;;6.23;5.77;;;7.40;99.90;;;;;;4979931;28;20202;-88
2021/01/30 04:35:30;;;;;;;7.03;6.43;;;7.20;99.90;;;;;;4978479;28;20205;-88
2021/01/30 04:38:02;;;;;;;7.43;6.93;;;6.90;99.90;;;;;;4979709;28;20530;-88
2021/01/30 04:40:40;;;;;;;8.17;7.57;;;6.80;99.90;;;;;;4978442;28;20174;-88
2021/01/30 04:43:42;;;;;;;9.47;8.53;;;6.60;99.90;;;;;;4978666;28;20178;-88
2021/01/30 04:46:17;;;;;;;10.47;9.57;;;6.10;99.90;;;;;;4978578;28;20174;-89
2021/01/30 04:48:46;;;;;;;10.77;9.73;;;5.80;99.90;;;;;;4979868;28;20633;-90
2021/01/30 04:51:17;;;;;;;10.80;9.90;;;5.60;99.90;;;;;;4979267;28;20201;-89
2021/01/30 04:54:01;;;;;;;12.73;10.83;;;5.50;99.90;;;;;;4978506;28;20643;-89
2021/01/30 04:56:32;;;;;;;12.20;10.77;;;5.50;99.90;;;;;;4978305;28;20185;-89
2021/01/30 04:59:32;;;;;;;12.67;11.00;;;5.40;99.90;;;;;;4978110;28;20228;-88
2021/01/30 05:02:06;;;;;;;12.17;10.67;;;5.30;99.90;;;;;;4978259;28;20522;-89
2021/01/30 05:04:35;;;;;;;13.50;11.10;;;5.20;99.90;;;;;;4978566;28;20718;-89
2021/01/30 05:07:13;;;;;;;16.53;12.17;;;5.10;99.90;;;;;;4978130;28;20167;-89
2021/01/30 05:09:47;;;;;;;13.07;10.70;;;5.10;99.90;;;;;;4975063;28;20174;-89
2021/01/30 05:12:38;;;;;;;13.40;12.00;;;5.00;99.90;;;;;;4960701;29;20245;-89
2021/01/30 05:15:37;;;;;;;19.53;11.70;;;5.00;99.90;;;;;;4960593;29;20171;-89
2021/01/30 05:18:04;;;;;;;13.27;11.87;;;4.90;99.90;;;;;;4960214;29;20505;-90
2021/01/30 05:20:33;;;;;;;12.40;11.07;;;4.90;99.90;;;;;;4958665;29;20179;-88
2021/01/30 05:23:03;;;;;;;13.57;11.50;;;4.90;99.90;;;;;;4975669;28;20179;-89
2021/01/30 05:25:29;;;;;;;12.63;11.33;;;4.90;99.90;;;;;;4963576;29;20179;-90
2021/01/30 05:28:19;;;;;;;13.80;12.30;;;4.90;99.90;;;;;;4976991;29;20299;-89
2021/01/30 05:31:11;;;;;;;12.70;11.07;;;4.80;99.90;;;;;;4958366;28;20174;-90
2021/01/30 05:34:02;;;;;;;18.87;12.33;;;4.80;99.90;;;;;;4974372;28;20205;-89
2021/01/30 05:36:35;;;;;;;12.80;11.23;;;4.80;99.90;;;;;;4978808;28;20774;-89
2021/01/30 05:39:46;;;;;;;13.77;9.57;;;4.70;99.90;;;;;;4979127;28;20166;-90
2021/01/30 05:42:44;;;;;;;12.40;9.83;;;4.50;99.90;;;;;;4978481;29;20170;-90
2021/01/30 05:45:35;;;;;;;13.87;9.20;;;4.40;99.90;;;;;;4987756;28;20182;-90
2021/01/30 05:48:02;;;;;;;17.07;10.83;;;4.30;99.90;;;;;;4958259;29;20238;-90
2021/01/30 05:50:43;;;;;;;18.53;11.93;;;4.20;99.90;;;;;;4957774;28;20175;-89
2021/01/30 05:53:13;;;;;;;15.77;10.80;;;4.10;99.90;;;;;;4958688;29;20227;-90
2021/01/30 05:55:42;;;;;;;16.63;11.07;;;4.10;99.90;;;;;;4962873;29;20563;-89
2021/01/30 05:58:15;;;;;;;15.83;12.20;;;4.00;99.90;;;;;;4968784;28;20181;-88
2021/01/30 06:00:48;;;;;;;14.53;12.23;;;4.00;99.90;;;;;;4980855;28;20169;-89
2021/01/30 06:03:23;;;;;;;14.67;11.13;;;4.00;99.90;;;;;;4963785;28;20179;-89
2021/01/30 06:06:08;;;;;;;16.03;12.47;;;4.00;99.90;;;;;;4978951;28;20619;-89
2021/01/30 06:08:34;;;;;;;18.33;12.60;;;4.00;99.90;;;;;;4981774;28;20627;-90
2021/01/30 06:11:14;;;;;;;17.47;12.40;;;4.00;99.90;;;;;;4978650;28;20170;-90
2021/01/30 06:13:59;;;;;;;16.30;12.00;;;4.00;99.90;;;;;;4974349;28;20292;-91
2021/01/30 06:17:01;;;;;;;13.83;12.27;;;4.00;99.90;;;;;;4978371;28;20183;-89
2021/01/30 06:19:34;;;;;;;18.23;11.47;;;4.00;99.90;;;;;;4956103;28;20200;-90
2021/01/30 06:22:22;;;;;;;12.33;11.03;;;4.10;99.90;;;;;;4979023;28;20171;-90
2021/01/30 06:24:53;;;;;;;11.33;10.13;;;4.00;99.90;;;;;;4959120;28;20198;-90
2021/01/30 06:27:31;;;;;;;19.63;11.27;;;4.00;99.90;;;;;;4958835;29;20171;-90
2021/01/30 06:30:13;;;;;;;11.00;9.57;;;4.00;99.90;;;;;;4957445;29;20197;-89
2021/01/30 06:32:43;;;;;;;12.33;10.93;;;4.00;99.90;;;;;;4959400;28;20202;-89
2021/01/30 06:35:18;;;;;;;13.77;10.17;;;4.00;99.90;;;;;;4958634;29;20182;-90
2021/01/30 06:37:54;;;;;;;12.77;11.50;;;3.80;99.90;;;;;;4958523;29;20638;-91
2021/01/30 06:40:36;;;;;;;16.27;9.97;;;3.70;99.90;;;;;;4960930;28;20612;-90
2021/01/30 06:43:11;;;;;;;12.50;11.20;;;3.70;99.90;;;;;;4957494;28;20201;-90
2021/01/30 06:45:45;;;;;;;16.77;11.40;;;3.70;99.90;;;;;;4958727;29;20173;-90
2021/01/30 06:48:28;;;;;;;12.43;10.90;;;3.80;99.90;;;;;;4958846;29;20229;-89
2021/01/30 06:50:53;;;;;;;13.33;10.60;;;3.80;99.90;;;;;;4958279;29;20176;-89
2021/01/30 06:53:28;;;;;;;15.17;11.10;;;3.70;99.90;;;;;;4969565;28;20596;-89
2021/01/30 06:55:55;;;;;;;19.20;11.70;;;3.70;99.90;;;;;;4979432;28;20216;-89
2021/01/30 06:58:37;;;;;;;14.80;11.70;;;3.70;99.90;;;;;;4978246;28;20170;-89
2021/01/30 07:01:15;;;;;;;13.00;10.67;;;3.70;99.90;;;;;;4978147;28;20651;-90
2021/01/30 07:04:07;;;;;;;15.40;11.60;;;3.70;99.90;;;;;;4978716;28;20178;-89
2021/01/30 07:06:45;;;;;;;11.83;10.57;;;3.70;99.90;;;;;;4980119;28;20186;-89
2021/01/30 07:09:49;;;;;;;11.23;10.00;;;3.70;99.90;;;;;;4977447;28;20181;-90
2021/01/30 07:12:27;;;;;;;11.17;10.07;;;3.70;99.90;;;;;;4963229;28;20202;-90
2021/01/30 07:15:26;;;;;;;10.30;9.40;;;3.60;99.90;;;;;;4977821;28;20220;-89
2021/01/30 07:17:55;;;;;;;10.43;9.43;;;3.70;99.90;;;;;;4979092;28;20242;-89
2021/01/30 07:20:49;;;;;;;11.00;10.00;;;3.70;99.90;;;;;;4977846;28;20185;-90
2021/01/30 07:23:42;;;;;;;13.93;10.00;;;3.70;99.90;;;;;;4976122;28;20280;-89
2021/01/30 07:26:31;;;;;;;11.93;9.67;;;3.60;99.90;;;;;;4959487;28;20188;-89
2021/01/30 07:29:01;;;;;;;14.73;10.30;;;3.70;99.90;;;;;;4976918;28;20197;-88
2021/01/30 07:31:27;;;;;;;12.57;9.10;;;3.80;99.90;;;;;;4975917;28;20167;-90
2021/01/30 07:34:18;;;;;;;11.17;10.17;;;3.70;99.90;;;;;;4975775;28;20269;-89
2021/01/30 07:37:15;;;;;;;11.37;9.33;;;3.70;99.90;;;;;;4976909;28;20253;-89
2021/01/30 07:40:01;;;;;;;10.70;9.60;;;3.70;99.90;;;;;;4976431;28;20248;-89
2021/01/30 07:42:34;;;;;;;9.87;8.97;;;3.70;99.90;;;;;;4975615;28;20185;-89
2021/01/30 07:45:09;;;;;;;10.17;9.20;;;3.60;99.90;;;;;;4975963;28;20260;-89
2021/01/30 07:47:49;;;;;;;11.90;8.97;;;3.50;99.90;;;;;;4976063;28;20174;-90
2021/01/30 07:50:31;;;;;;;9.90;9.00;;;3.50;99.90;;;;;;4983721;28;20174;-91
2021/01/30 07:53:14;;;;;;;9.40;8.50;;;3.40;99.90;;;;;;4995803;28;20260;-90
2021/01/30 07:56:02;;;;;;;8.70;7.83;;;3.40;99.90;;;;;;4996315;28;20169;-89
2021/01/30 07:59:10;;;;;;;8.63;7.83;;;3.50;99.90;;;;;;4968229;28;20181;-90
2021/01/30 08:01:52;;;;;;;6.80;6.20;;;3.40;99.90;;;;;;4957908;28;20579;-90
2021/01/30 08:05:16;;;;;;;7.23;6.63;;;3.30;99.90;;;;;;4957714;29;20175;-91
2021/01/30 08:08:23;;;;;;;8.47;7.53;;;3.30;99.90;;;;;;4924025;29;20181;-91
2021/01/30 08:11:03;;;;;;;8.93;8.03;;;3.30;99.90;;;;;;4939657;29;20230;-92
2021/01/30 08:14:08;;;;;;;8.30;7.47;;;3.20;99.90;;;;;;4951150;29;20250;-90
2021/01/30 08:17:29;;;;;;;8.63;7.67;;;3.20;99.90;;;;;;4964832;28;20523;-90
2021/01/30 08:20:09;;;;;;;7.13;6.53;;;3.20;99.90;;;;;;4952352;28;20282;-90
2021/01/30 08:22:59;;;;;;;11.20;7.17;;;3.20;99.90;;;;;;4962836;28;20177;-92
2021/01/30 08:25:53;;;;;;;7.70;6.90;;;3.20;99.90;;;;;;4977079;28;20170;-92
2021/01/30 08:28:36;;;;;;;7.33;6.63;;;3.20;99.90;;;;;;4979950;28;20178;-89
2021/01/30 08:31:01;;;;;;;7.90;6.00;;;3.20;99.90;;;;;;4976671;28;20162;-90
2021/01/30 08:34:08;;;;;;;6.77;6.17;;;3.10;99.90;;;;;;4976184;28;20209;-89
2021/01/30 08:36:38;;;;;;;7.47;6.77;;;3.00;99.90;;;;;;4976617;28;20166;-90
2021/01/30 08:39:16;;;;;;;7.50;6.83;;;3.20;99.90;;;;;;4976692;28;20583;-89
2021/01/30 08:41:46;;;;;;;7.53;6.83;;;3.20;99.90;;;;;;4976944;28;20173;-90
2021/01/30 08:44:41;;;;;;;7.97;7.17;;;3.20;99.90;;;;;;4978232;28;20170;-90
2021/01/30 08:47:09;;;;;;;7.63;6.93;;;3.20;99.90;;;;;;4969997;28;20182;-89
2021/01/30 08:49:35;;;;;;;7.80;7.00;;;3.20;99.90;;;;;;4977765;28;20202;-91
2021/01/30 08:52:13;;;;;;;7.63;6.93;;;3.10;99.90;;;;;;4976412;28;20217;-92
2021/01/30 08:54:45;;;;;;;8.07;7.27;;;3.10;99.90;;;;;;4957500;28;20190;-90
2021/01/30 08:57:30;;;;;;;8.20;6.33;;;3.20;99.90;;;;;;4972686;28;20174;-89
2021/01/30 08:59:57;;;;;;;6.87;6.27;;;3.20;99.90;;;;;;4978134;28;20178;-89
2021/01/30 09:02:28;;;;;;;6.57;5.93;;;3.20;99.90;;;;;;4976126;28;20185;-89
2021/01/30 09:05:20;;;;;;;7.23;6.57;;;3.20;99.90;;;;;;4977032;28;20193;-89
2021/01/30 09:07:56;;;;;;;5.87;5.33;;;3.20;99.90;;;;;;4977868;28;20193;-90
2021/01/30 09:10:22;;;;;;;7.30;6.60;;;3.10;99.90;;;;;;4980546;28;20538;-90
2021/01/30 09:12:57;;;;;;;6.13;5.53;;;3.10;99.90;;;;;;4982402;28;20202;-89
2021/01/30 09:15:57;;;;;;;5.60;5.10;;;3.10;99.90;;;;;;4980813;28;20170;-90
2021/01/30 09:18:31;;;;;;;6.03;5.53;;;3.10;99.90;;;;;;4983874;28;20264;-88
2021/01/30 09:21:19;;;;;;;6.43;5.80;;;3.10;99.90;;;;;;4980675;28;20177;-88
2021/01/30 09:24:07;;;;;;;5.80;5.30;;;3.10;99.90;;;;;;4979246;28;20226;-89
2021/01/30 09:26:52;;;;;;;6.90;6.30;;;3.10;99.90;;;;;;4949344;28;20246;-91
2021/01/30 09:29:42;;;;;;;7.03;6.33;;;3.10;99.90;;;;;;4982041;28;20205;-89
2021/01/30 09:32:12;;;;;;;6.10;5.20;;;3.10;99.90;;;;;;4973015;28;20210;-89
2021/01/30 09:34:48;;;;;;;8.40;6.13;;;3.10;99.90;;;;;;4982452;28;20171;-89
2021/01/30 09:37:39;;;;;;;7.10;6.40;;;3.00;99.90;;;;;;4980480;28;20680;-89
2021/01/30 09:40:25;;;;;;;7.33;6.20;;;3.10;99.90;;;;;;4981254;28;20171;-92
2021/01/30 09:43:07;;;;;;;6.20;5.60;;;3.20;99.90;;;;;;4960423;29;20179;-89
2021/01/30 09:45:35;;;;;;;8.20;7.07;;;3.20;99.90;;;;;;4960486;29;20631;-90
2021/01/30 09:48:07;;;;;;;9.23;8.00;;;3.20;99.90;;;;;;4968218;28;20174;-89
2021/01/30 09:50:41;;;;;;;9.23;8.33;;;3.20;99.90;;;;;;4980583;28;20293;-90
2021/01/30 09:53:13;;;;;;;11.10;8.10;;;3.20;99.90;;;;;;4982413;28;20304;-88
2021/01/30 09:55:41;;;;;;;9.13;8.17;;;3.20;99.90;;;;;;4978182;28;20181;-90
2021/01/30 09:58:13;;;;;;;11.33;8.77;;;3.10;99.90;;;;;;4992478;28;20185;-89
2021/01/30 10:00:47;;;;;;;11.40;8.70;;;3.10;99.90;;;;;;5003767;28;20189;-89
2021/01/30 10:03:16;;;;;;;12.70;9.50;;;3.20;99.90;;;;;;5019304;28;20169;-88
2021/01/30 10:05:53;;;;;;;9.90;8.17;;;3.20;99.90;;;;;;5003128;28;20213;-91
2021/01/30 10:08:33;;;;;;;13.23;8.20;;;3.10;99.90;;;;;;4997136;28;20217;-89
2021/01/30 10:11:15;;;;;;;11.43;8.97;;;3.10;99.90;;;;;;4963497;29;20175;-93
2021/01/30 10:14:00;;;;;;;10.90;9.27;;;3.00;99.90;;;;;;4976410;28;20211;-89
2021/01/30 10:16:28;;;;;;;14.03;9.80;;;3.10;99.90;;;;;;4961935;28;20266;-89
2021/01/30 10:19:00;;;;;;;16.63;9.80;;;3.10;99.90;;;;;;4989806;28;20189;-89
2021/01/30 10:21:33;;;;;;;13.17;9.50;;;3.10;99.90;;;;;;4989995;28;20173;-91
2021/01/30 10:24:12;;;;;;;14.63;11.23;;;3.10;99.90;;;;;;4997633;28;20186;-90
2021/01/30 10:26:38;;;;;;;20.17;11.17;;;3.10;99.90;;;;;;4997822;28;20229;-89
2021/01/30 10:29:11;;;;;;;17.27;13.03;;;3.10;99.90;;;;;;4997759;28;20174;-90
2021/01/30 10:31:42;;;;;;;17.10;12.93;;;3.10;99.90;;;;;;4998162;28;20178;-89
2021/01/30 10:34:23;;;;;;;18.13;11.97;;;3.00;99.90;;;;;;4997585;28;20170;-90
2021/01/30 10:37:14;;;;;;;19.57;13.50;;;3.00;99.90;;;;;;4998040;28;20178;-91
2021/01/30 10:39:47;;;;;;;21.80;13.43;;;3.00;99.90;;;;;;4996220;28;20194;-89
2021/01/30 10:42:26;;;;;;;25.07;15.87;;;3.00;99.90;;;;;;4994257;28;20213;-91
2021/01/30 10:45:14;;;;;;;23.03;15.27;;;3.00;99.90;;;;;;4995267;28;20154;-88
2021/01/30 10:47:40;;;;;;;30.00;16.80;;;3.00;99.90;;;;;;4989020;28;20154;-87
2021/01/30 10:50:28;;;;;;;25.20;16.33;;;3.00;99.90;;;;;;4993099;28;20178;-89
2021/01/30 10:52:59;;;;;;;25.73;15.90;;;3.00;99.90;;;;;;4989274;28;20612;-88
2021/01/30 10:55:30;;;;;;;27.63;16.83;;;3.00;99.90;;;;;;4979192;28;20174;-91
2021/01/30 10:58:13;;;;;;;24.80;16.93;;;3.00;99.90;;;;;;5002798;28;20171;-89
2021/01/30 11:00:39;;;;;;;27.83;16.97;;;3.00;99.90;;;;;;4982644;28;20186;-89
2021/01/30 11:03:25;;;;;;;31.30;18.63;;;2.90;99.90;;;;;;4963817;28;20193;-90
2021/01/30 11:05:52;;;;;;;26.57;17.73;;;2.90;99.90;;;;;;4980855;28;20178;-88
2021/01/30 11:08:30;;;;;;;33.70;19.63;;;3.00;99.90;;;;;;4981072;28;20174;-88
2021/01/30 11:11:02;;;;;;;32.93;20.47;;;3.10;99.90;;;;;;4981752;28;20186;-88
2021/01/30 11:13:39;;;;;;;34.97;20.20;;;3.20;99.90;;;;;;4971885;28;20674;-89
2021/01/30 11:16:34;;;;;;;35.47;21.40;;;3.30;99.90;;;;;;5100644;27;1012365;-90
2021/01/30 11:19:20;;;;;;;36.47;21.73;;;3.10;99.90;;;;;;5093028;28;20178;-90
2021/01/30 11:21:46;;;;;;;39.00;22.37;;;3.10;99.90;;;;;;5093457;28;20188;-91
2021/01/30 11:24:32;;;;;;;34.90;22.43;;;3.00;99.90;;;;;;5075973;28;20638;-89
2021/01/30 11:27:01;;;;;;;37.87;22.90;;;3.00;99.90;;;;;;5077883;28;20208;-90
2021/01/30 11:29:39;;;;;;;35.43;21.13;;;2.90;99.90;;;;;;5083156;28;20178;-89
2021/01/30 11:32:07;;;;;;;36.50;23.47;;;2.90;99.90;;;;;;5084287;28;20169;-89
2021/01/30 11:34:33;;;;;;;37.80;23.30;;;3.00;99.90;;;;;;5088140;28;20241;-91
2021/01/30 11:37:00;;;;;;;40.10;23.57;;;3.00;99.90;;;;;;5111112;28;20166;-89
2021/01/30 11:39:30;;;;;;;40.57;23.03;;;3.00;99.90;;;;;;5077742;28;20177;-90
2021/01/30 11:41:56;;;;;;;39.57;23.33;;;2.90;99.90;;;;;;5091333;28;20185;-91
2021/01/30 11:44:23;;;;;;;46.87;23.83;;;2.80;99.90;;;;;;5074000;28;20174;-89
2021/01/30 11:46:49;;;;;;;41.30;25.27;;;2.90;99.90;;;;;;5078616;28;20259;-89
2021/01/30 11:49:16;;;;;;;38.03;23.70;;;2.90;99.90;;;;;;5100373;28;20679;-89
2021/01/30 11:51:42;;;;;;;38.87;23.60;;;2.90;99.90;;;;;;5090599;28;20199;-88
2021/01/30 11:54:09;;;;;;;38.70;23.63;;;2.90;99.90;;;;;;5096061;28;20215;-91
2021/01/30 11:56:34;;;;;;;38.47;23.53;;;2.80;99.90;;;;;;5086098;28;20204;-92
2021/01/30 11:59:00;;;;;;;38.13;23.67;;;2.80;99.90;;;;;;5087413;28;20174;-92
2021/01/30 12:01:26;;;;;;;39.53;23.83;;;2.80;99.90;;;;;;5074396;28;20611;-89
2021/01/30 12:03:54;;;;;;;41.87;23.87;;;2.80;99.90;;;;;;5075063;28;21971;-91
2021/01/30 12:06:22;;;;;;;44.60;25.53;;;2.80;99.90;;;;;;5094409;28;20174;-90
2021/01/30 12:08:48;;;;;;;41.40;24.17;;;2.90;99.90;;;;;;5075482;28;20170;-90
2021/01/30 12:11:14;;;;;;;39.00;24.53;;;3.00;99.90;;;;;;5075638;28;20171;-93
2021/01/30 12:13:43;;;;;;;43.60;26.40;;;3.00;99.90;;;;;;5089548;28;20165;-90
2021/01/30 12:16:09;;;;;;;46.33;26.80;;;3.00;99.90;;;;;;5094098;28;20221;-91
2021/01/30 12:18:35;;;;;;;45.47;27.63;;;3.10;99.90;;;;;;5080247;28;20178;-89
2021/01/30 12:21:02;;;;;;;43.43;27.70;;;3.00;99.90;;;;;;5086617;28;20179;-90
2021/01/30 12:23:31;;;;;;;46.57;26.67;;;3.20;99.90;;;;;;5074546;28;20626;-93
2021/01/30 12:25:59;;;;;;;41.33;24.80;;;3.30;99.90;;;;;;5072055;28;20178;-90
2021/01/30 12:28:29;;;;;;;43.07;25.97;;;3.20;99.90;;;;;;5080470;28;20198;-89
2021/01/30 12:30:55;;;;;;;42.03;25.07;;;3.10;99.90;;;;;;5077709;28;20261;-89
2021/01/30 12:33:21;;;;;;;42.50;25.67;;;3.20;99.90;;;;;;5061670;28;20167;-89
2021/01/30 12:35:50;;;;;;;49.63;26.63;;;3.20;99.90;;;;;;5061787;28;20285;-89
2021/01/30 12:38:22;;;;;;;42.00;25.80;;;3.20;99.90;;;;;;5060328;28;20182;-89
2021/01/30 12:40:48;;;;;;;46.73;27.73;;;3.20;99.90;;;;;;5053288;28;20175;-88
2021/01/30 12:43:19;;;;;;;45.33;26.00;;;3.20;99.90;;;;;;5068280;28;20179;-89
2021/01/30 12:45:49;;;;;;;43.57;26.53;;;3.20;99.90;;;;;;5060976;28;20175;-90
2021/01/30 12:48:16;;;;;;;49.67;28.80;;;3.20;99.90;;;;;;5072756;28;20201;-89
2021/01/30 12:50:42;;;;;;;51.83;27.47;;;3.30;99.90;;;;;;5080182;28;20193;-90
2021/01/30 12:53:08;;;;;;;45.57;26.40;;;3.30;99.90;;;;;;5093387;28;20189;-91
2021/01/30 12:55:43;;;;;;;45.00;27.23;;;3.20;99.90;;;;;;5089121;28;20194;-87
2021/01/30 12:58:11;;;;;;;42.37;26.53;;;3.10;99.90;;;;;;5080629;28;20177;-90
2021/01/30 13:00:40;;;;;;;43.53;25.57;;;3.10;99.90;;;;;;5080756;28;20177;-88
2021/01/30 13:03:08;;;;;;;47.90;27.60;;;3.10;99.90;;;;;;5072483;28;20528;-88
2021/01/30 13:05:33;;;;;;;45.00;26.57;;;3.20;99.90;;;;;;5071122;28;20186;-89
2021/01/30 13:08:00;;;;;;;41.63;27.23;;;3.30;99.90;;;;;;5113229;28;20174;-90
2021/01/30 13:10:28;;;;;;;40.17;26.17;;;3.40;99.90;;;;;;5099071;28;20173;-90
2021/01/30 13:12:56;;;;;;;43.33;27.07;;;3.30;99.90;;;;;;5079709;28;20170;-90
2021/01/30 13:15:25;;;;;;;46.80;27.00;;;3.40;99.90;;;;;;5062152;28;20218;-90
2021/01/30 13:17:50;;;;;;;42.63;26.53;;;3.30;99.90;;;;;;5061564;28;20210;-89
2021/01/30 13:20:17;;;;;;;49.30;28.63;;;3.20;99.90;;;;;;5061437;28;20171;-91
2021/01/30 13:22:43;;;;;;;43.13;27.33;;;3.20;99.90;;;;;;5061200;28;20191;-91